createdAt,value
2019-05-18T00:00:56.272Z,57.81
2019-05-18T00:03:27.541Z,57.78
2019-05-18T00:05:58.569Z,57.72
2019-05-18T00:08:30.025Z,57.75
2019-05-18T00:11:01.073Z,57.77
2019-05-18T00:13:32.270Z,57.84
2019-05-18T00:16:03.369Z,57.99
2019-05-18T00:18:34.920Z,57.85
2019-05-18T00:21:06.585Z,57.92
2019-05-18T00:23:37.935Z,58.07
2019-05-18T00:26:09.397Z,57.77
2019-05-18T00:28:40.853Z,57.90
2019-05-18T00:31:12.196Z,57.69
2019-05-18T00:33:43.759Z,57.74
2019-05-18T00:36:14.898Z,57.85
2019-05-18T00:38:46.252Z,57.87
2019-05-18T00:41:17.717Z,57.66
2019-05-18T00:43:49.169Z,58.03
2019-05-18T00:46:20.507Z,57.99
2019-05-18T00:48:52.063Z,58.00
2019-05-18T00:51:23.599Z,58.24
2019-05-18T00:53:54.773Z,58.32
2019-05-18T00:56:26.329Z,58.06
2019-05-18T00:58:57.598Z,58.57
2019-05-18T01:01:29.234Z,58.21
2019-05-18T01:04:00.903Z,58.20
2019-05-18T01:06:32.355Z,59.32
2019-05-18T01:09:05.310Z,61.07
2019-05-18T01:11:36.392Z,61.53
2019-05-18T01:14:07.745Z,61.98
2019-05-18T01:16:38.995Z,61.92
2019-05-18T01:19:10.136Z,61.40
2019-05-18T01:21:41.586Z,61.31
2019-05-18T01:24:12.635Z,61.57
2019-05-18T01:26:44.191Z,61.76
2019-05-18T01:29:15.438Z,61.40
2019-05-18T01:31:46.583Z,61.31
2019-05-18T01:34:17.570Z,61.22
2019-05-18T01:36:48.982Z,61.60
2019-05-18T01:39:20.539Z,61.50
2019-05-18T01:41:51.586Z,61.32
2019-05-18T01:44:22.949Z,61.50
2019-05-18T01:46:54.399Z,61.74
2019-05-18T01:49:25.850Z,62.30
2019-05-18T01:51:57.192Z,62.27
2019-05-18T01:54:28.438Z,62.27
2019-05-18T01:56:59.691Z,62.23
2019-05-18T01:59:31.150Z,62.30
2019-05-18T02:02:02.506Z,62.23
2019-05-18T02:04:34.057Z,62.12
2019-05-18T02:07:06.640Z,62.41
2019-05-18T02:09:38.090Z,62.63
2019-05-18T02:12:09.234Z,62.61
2019-05-18T02:14:40.424Z,62.57
2019-05-18T02:17:11.775Z,62.62
2019-05-18T02:19:42.777Z,62.78
2019-05-18T02:22:14.341Z,62.52
2019-05-18T02:24:45.792Z,62.21
2019-05-18T02:27:17.657Z,62.22
2019-05-18T02:29:49.012Z,61.92
2019-05-18T02:32:20.573Z,61.76
2019-05-18T02:34:51.817Z,62.29
2019-05-18T02:37:22.965Z,62.36
2019-05-18T02:39:55.751Z,62.34
2019-05-18T02:42:30.538Z,62.45
2019-05-18T02:44:59.883Z,61.94
2019-05-18T02:47:31.236Z,61.55
2019-05-18T02:50:02.593Z,61.11
2019-05-18T02:52:34.250Z,60.76
2019-05-18T02:55:06.134Z,60.53
2019-05-18T02:57:37.360Z,60.12
2019-05-18T03:00:10.479Z,60.09
2019-05-18T03:02:41.603Z,59.93
2019-05-18T03:05:13.053Z,60.22
2019-05-18T03:07:44.215Z,60.40
2019-05-18T03:10:15.461Z,60.18
2019-05-18T03:12:47.212Z,60.05
2019-05-18T03:15:18.769Z,60.03
2019-05-18T03:17:50.434Z,59.94
2019-05-18T03:20:21.779Z,59.94
2019-05-18T03:22:53.031Z,59.63
2019-05-18T03:25:24.664Z,59.41
2019-05-18T03:27:56.348Z,59.08
2019-05-18T03:30:27.596Z,59.06
2019-05-18T03:32:58.847Z,58.91
2019-05-18T03:35:30.130Z,58.74
2019-05-18T03:38:01.646Z,58.71
2019-05-18T03:40:33.104Z,58.77
2019-05-18T03:43:04.558Z,58.55
2019-05-18T03:45:35.803Z,58.66
2019-05-18T03:48:07.463Z,58.56
2019-05-18T03:50:38.924Z,58.30
2019-05-18T03:53:10.376Z,57.87
2019-05-18T03:55:41.625Z,58.42
2019-05-18T03:58:13.094Z,58.81
2019-05-18T04:00:45.170Z,59.16
2019-05-18T04:03:16.703Z,59.00
2019-05-18T04:05:48.056Z,58.96
2019-05-18T04:08:20.220Z,58.43
2019-05-18T04:10:51.675Z,58.67
2019-05-18T04:13:23.132Z,58.46
2019-05-18T04:15:55.202Z,58.40
2019-05-18T04:18:26.761Z,58.39
2019-05-18T04:20:58.026Z,58.43
2019-05-18T04:23:29.463Z,58.10
2019-05-18T04:26:00.818Z,58.04
2019-05-18T04:28:33.300Z,58.14
2019-05-18T04:31:04.336Z,57.67
2019-05-18T04:33:35.794Z,57.80
2019-05-18T04:36:07.040Z,57.46
2019-05-18T04:38:38.456Z,57.37
2019-05-18T04:41:09.791Z,57.48
2019-05-18T04:43:40.999Z,57.07
2019-05-18T04:46:12.356Z,57.32
2019-05-18T04:48:43.897Z,56.75
2019-05-18T04:51:15.351Z,56.80
2019-05-18T04:53:46.810Z,56.68
2019-05-18T04:56:18.261Z,56.33
2019-05-18T04:58:49.516Z,56.33
2019-05-18T05:01:20.989Z,56.16
2019-05-18T05:03:52.724Z,55.97
2019-05-18T05:06:24.404Z,55.77
2019-05-18T05:08:55.951Z,55.91
2019-05-18T05:11:27.921Z,55.80
2019-05-18T05:14:00.712Z,56.10
2019-05-18T05:16:32.034Z,55.67
2019-05-18T05:19:03.496Z,55.54
2019-05-18T05:21:34.970Z,54.93
2019-05-18T05:24:06.088Z,54.56
2019-05-18T05:26:39.438Z,54.61
2019-05-18T05:29:10.639Z,54.93
2019-05-18T05:31:42.305Z,54.98
2019-05-18T05:34:13.549Z,55.00
2019-05-18T05:36:44.901Z,54.52
2019-05-18T05:39:16.987Z,54.30
2019-05-18T05:41:48.630Z,54.35
2019-05-18T05:44:19.987Z,54.27
2019-05-18T05:46:51.127Z,54.17
2019-05-18T05:49:22.576Z,54.43
2019-05-18T05:51:53.825Z,54.19
2019-05-18T05:54:24.952Z,54.42
2019-05-18T05:56:56.528Z,54.13
2019-05-18T05:59:27.885Z,53.98
2019-05-18T06:02:00.976Z,53.70
2019-05-18T06:04:32.223Z,53.98
2019-05-18T06:07:05.108Z,53.95
2019-05-18T06:09:36.377Z,54.26
2019-05-18T06:12:08.034Z,54.30
2019-05-18T06:14:39.684Z,54.07
2019-05-18T06:17:11.127Z,54.42
2019-05-18T06:19:42.274Z,54.05
2019-05-18T06:22:13.623Z,53.42
2019-05-18T06:24:45.389Z,53.79
2019-05-18T06:27:16.635Z,53.72
2019-05-18T06:29:48.088Z,53.47
2019-05-18T06:32:19.136Z,53.08
2019-05-18T06:34:50.790Z,52.80
2019-05-18T06:37:22.043Z,52.53
2019-05-18T06:39:53.491Z,52.82
2019-05-18T06:42:24.742Z,52.04
2019-05-18T06:44:56.195Z,52.32
2019-05-18T06:47:28.528Z,51.84
2019-05-18T06:50:00.033Z,52.06
2019-05-18T06:52:31.270Z,51.22
2019-05-18T06:55:02.524Z,51.09
2019-05-18T06:57:33.873Z,50.90
2019-05-18T07:00:10.146Z,50.76
2019-05-18T07:02:41.287Z,51.21
2019-05-18T07:05:12.437Z,50.64
2019-05-18T07:07:43.837Z,50.39
2019-05-18T07:10:15.344Z,50.27
2019-05-18T07:12:47.306Z,49.75
2019-05-18T07:15:19.558Z,49.79
2019-05-18T07:17:50.762Z,50.16
2019-05-18T07:20:22.392Z,49.63
2019-05-18T07:22:53.735Z,49.38
2019-05-18T07:25:25.019Z,49.31
2019-05-18T07:27:56.430Z,49.29
2019-05-18T07:30:27.779Z,49.16
2019-05-18T07:32:58.932Z,48.91
2019-05-18T07:35:30.343Z,49.00
2019-05-18T07:38:02.213Z,48.63
2019-05-18T07:40:33.732Z,48.63
2019-05-18T07:43:05.169Z,48.59
2019-05-18T07:45:36.711Z,48.19
2019-05-18T07:48:08.053Z,48.42
2019-05-18T07:50:40.666Z,48.39
2019-05-18T07:53:13.411Z,48.31
2019-05-18T07:55:44.865Z,47.84
2019-05-18T07:58:16.313Z,47.17
2019-05-18T08:00:47.974Z,47.16
2019-05-18T08:03:19.118Z,47.49
2019-05-18T08:05:51.189Z,47.29
2019-05-18T08:08:22.846Z,46.50
2019-05-18T08:10:54.430Z,47.39
2019-05-18T08:13:26.268Z,47.15
2019-05-18T08:15:57.818Z,46.79
2019-05-18T08:18:29.069Z,47.00
2019-05-18T08:21:00.336Z,47.01
2019-05-18T08:23:31.879Z,46.83
2019-05-18T08:26:03.023Z,46.89
2019-05-18T08:28:34.371Z,46.95
2019-05-18T08:31:05.513Z,46.42
2019-05-18T08:33:36.659Z,45.86
2019-05-18T08:36:08.320Z,45.68
2019-05-18T08:38:43.848Z,45.58
2019-05-18T08:41:15.727Z,44.83
2019-05-18T08:43:47.179Z,45.25
2019-05-18T08:46:18.759Z,44.98
2019-05-18T08:48:49.795Z,44.87
2019-05-18T08:51:21.453Z,44.78
2019-05-18T08:53:52.876Z,44.29
2019-05-18T08:56:24.536Z,43.90
2019-05-18T08:58:56.400Z,44.46
2019-05-18T09:01:30.895Z,44.84
2019-05-18T09:04:02.117Z,44.90
2019-05-18T09:06:33.722Z,44.76
2019-05-18T09:09:06.411Z,44.61
2019-05-18T09:11:37.873Z,44.75
2019-05-18T09:14:09.508Z,44.73
2019-05-18T09:16:42.418Z,45.53
2019-05-18T09:19:15.183Z,45.09
2019-05-18T09:21:46.735Z,44.87
2019-05-18T09:24:18.291Z,44.31
2019-05-18T09:26:49.539Z,43.87
2019-05-18T09:29:21.038Z,43.50
2019-05-18T09:31:52.339Z,43.29
2019-05-18T09:34:23.785Z,43.42
2019-05-18T09:36:55.800Z,43.73
2019-05-18T09:39:27.304Z,43.89
2019-05-18T09:41:58.651Z,44.32
2019-05-18T09:44:29.910Z,44.13
2019-05-18T09:47:01.596Z,43.58
2019-05-18T09:49:32.897Z,43.56
2019-05-18T09:52:04.743Z,43.12
2019-05-18T09:54:36.209Z,43.15
2019-05-18T09:57:07.657Z,43.42
2019-05-18T09:59:39.422Z,43.23
2019-05-18T10:02:10.768Z,42.86
2019-05-18T10:04:42.439Z,42.02
2019-05-18T10:07:13.580Z,41.71
2019-05-18T10:09:45.136Z,41.48
2019-05-18T10:12:16.386Z,41.28
2019-05-18T10:14:49.005Z,41.06
2019-05-18T10:17:20.207Z,40.62
2019-05-18T10:19:51.763Z,40.07
2019-05-18T10:22:23.210Z,39.08
2019-05-18T10:24:54.259Z,38.92
2019-05-18T10:27:25.717Z,39.35
2019-05-18T10:29:57.060Z,39.60
2019-05-18T10:32:28.618Z,40.11
2019-05-18T10:34:59.655Z,41.11
2019-05-18T10:37:30.696Z,41.28
2019-05-18T10:40:02.458Z,41.15
2019-05-18T10:42:33.706Z,40.98
2019-05-18T10:45:07.627Z,41.01
2019-05-18T10:47:39.175Z,40.59
2019-05-18T10:50:12.407Z,40.74
2019-05-18T10:52:44.646Z,40.06
2019-05-18T10:55:15.919Z,40.18
2019-05-18T10:57:47.350Z,38.62
2019-05-18T11:00:19.453Z,38.35
2019-05-18T11:02:50.569Z,38.71
2019-05-18T11:05:22.228Z,38.05
2019-05-18T11:07:53.281Z,36.85
2019-05-18T11:10:25.963Z,36.33
2019-05-18T11:12:57.619Z,36.80
2019-05-18T11:15:28.967Z,37.17
2019-05-18T11:18:00.120Z,37.69
2019-05-18T11:20:31.362Z,38.66
2019-05-18T11:23:02.716Z,38.80
2019-05-18T11:25:34.272Z,38.88
2019-05-18T11:28:05.825Z,37.97
2019-05-18T11:30:37.325Z,36.97
2019-05-18T11:33:08.839Z,35.96
2019-05-18T11:35:40.498Z,35.44
2019-05-18T11:38:12.563Z,34.51
2019-05-18T11:40:43.717Z,34.80
2019-05-18T11:43:15.276Z,34.90
2019-05-18T11:45:47.266Z,35.44
2019-05-18T11:48:18.794Z,35.74
2019-05-18T11:50:50.574Z,35.23
2019-05-18T11:53:22.204Z,35.21
2019-05-18T11:55:53.657Z,35.79
2019-05-18T11:58:25.110Z,34.89
2019-05-18T12:00:57.441Z,34.11
2019-05-18T12:03:29.141Z,34.33
2019-05-18T12:06:00.697Z,34.19
2019-05-18T12:08:32.989Z,33.16
2019-05-18T12:11:06.326Z,32.42
2019-05-18T12:13:39.836Z,31.98
2019-05-18T12:16:13.337Z,32.36
2019-05-18T12:18:44.799Z,33.71
2019-05-18T12:21:16.148Z,34.09
2019-05-18T12:23:47.711Z,34.78
2019-05-18T12:26:19.548Z,35.18
2019-05-18T12:28:52.077Z,36.11
2019-05-18T12:31:23.685Z,37.54
2019-05-18T12:33:57.944Z,38.37
2019-05-18T12:36:29.256Z,38.55
2019-05-18T12:39:00.849Z,38.66
2019-05-18T12:41:33.323Z,38.97
2019-05-18T12:44:05.454Z,39.01
2019-05-18T12:46:37.039Z,38.87
2019-05-18T12:49:08.257Z,39.06
2019-05-18T12:51:39.501Z,39.06
2019-05-18T12:54:10.653Z,39.95
2019-05-18T12:56:41.797Z,40.01
2019-05-18T12:59:13.150Z,39.63
2019-05-18T13:01:44.615Z,39.83
2019-05-18T13:04:15.857Z,39.97
2019-05-18T13:06:47.100Z,40.10
2019-05-18T13:09:19.118Z,39.69
2019-05-18T13:11:50.211Z,38.92
2019-05-18T13:14:22.271Z,38.76
2019-05-18T13:16:53.571Z,38.76
2019-05-18T13:19:24.796Z,38.39
2019-05-18T13:21:55.823Z,37.37
2019-05-18T13:24:27.280Z,35.96
2019-05-18T13:26:59.756Z,35.36
2019-05-18T13:29:30.902Z,34.02
2019-05-18T13:32:02.426Z,34.27
2019-05-18T13:34:33.527Z,34.52
2019-05-18T13:37:04.666Z,34.19
2019-05-18T13:39:36.097Z,32.43
2019-05-18T13:42:07.367Z,31.34
2019-05-18T13:44:38.694Z,30.29
2019-05-18T13:47:10.256Z,30.25
2019-05-18T13:49:41.808Z,31.00
2019-05-18T13:52:15.710Z,32.03
2019-05-18T13:55:03.177Z,32.71
2019-05-18T13:57:26.839Z,30.21
2019-05-18T14:00:00.432Z,31.50
2019-05-18T14:02:34.774Z,32.37
2019-05-18T14:05:06.944Z,31.14
2019-05-18T14:07:40.126Z,30.49
2019-05-18T14:10:13.328Z,29.96
2019-05-18T14:12:44.427Z,29.74
2019-05-18T14:15:15.746Z,29.24
2019-05-18T14:17:47.340Z,29.58
2019-05-18T14:20:20.412Z,30.01
2019-05-18T14:22:51.763Z,30.46
2019-05-18T14:25:23.002Z,30.45
2019-05-18T14:27:54.504Z,29.81
2019-05-18T14:30:26.184Z,29.53
2019-05-18T14:32:57.269Z,29.70
2019-05-18T14:35:28.474Z,30.11
2019-05-18T14:37:59.648Z,30.05
2019-05-18T14:40:30.811Z,30.57
2019-05-18T14:43:02.349Z,30.40
2019-05-18T14:45:34.047Z,30.68
2019-05-18T14:48:05.671Z,31.63
2019-05-18T14:50:37.012Z,31.28
2019-05-18T14:53:08.596Z,30.82
2019-05-18T14:55:41.453Z,29.59
2019-05-18T14:58:14.162Z,28.76
2019-05-18T15:00:45.585Z,28.54
2019-05-18T15:03:16.984Z,28.38
2019-05-18T15:05:48.081Z,29.17
2019-05-18T15:08:19.534Z,29.26
2019-05-18T15:10:50.675Z,29.40
2019-05-18T15:13:22.026Z,28.71
2019-05-18T15:15:53.684Z,28.12
2019-05-18T15:18:25.639Z,27.71
2019-05-18T15:20:57.742Z,27.76
2019-05-18T15:23:28.812Z,28.07
2019-05-18T15:25:59.903Z,27.70
2019-05-18T15:28:31.050Z,27.59
2019-05-18T15:31:02.401Z,27.79
2019-05-18T15:33:33.849Z,28.23
2019-05-18T15:36:06.330Z,28.39
2019-05-18T15:38:37.934Z,29.21
2019-05-18T15:41:09.398Z,30.13
2019-05-18T15:43:40.828Z,31.04
2019-05-18T15:46:12.342Z,31.48
2019-05-18T15:48:44.169Z,32.64
2019-05-18T15:51:16.587Z,33.12
2019-05-18T15:53:48.765Z,33.25
2019-05-18T15:56:20.356Z,33.47
2019-05-18T15:58:51.559Z,33.45
2019-05-18T16:01:23.001Z,33.70
2019-05-18T16:03:54.558Z,34.30
2019-05-18T16:06:26.122Z,35.56
2019-05-18T16:08:57.872Z,36.77
2019-05-18T16:11:29.327Z,37.89
2019-05-18T16:14:00.772Z,38.70
2019-05-18T16:16:32.517Z,39.45
2019-05-18T16:19:04.310Z,39.90
2019-05-18T16:21:35.412Z,40.55
2019-05-18T16:24:06.418Z,41.10
2019-05-18T16:26:37.630Z,41.31
2019-05-18T16:29:08.875Z,41.73
2019-05-18T16:31:40.124Z,41.96
2019-05-18T16:34:12.333Z,42.38
2019-05-18T16:36:43.948Z,42.60
2019-05-18T16:39:15.300Z,42.52
2019-05-18T16:41:47.272Z,42.93
2019-05-18T16:44:20.042Z,43.29
2019-05-18T16:46:52.634Z,43.61
2019-05-18T16:49:24.786Z,43.91
2019-05-18T16:51:56.038Z,44.22
2019-05-18T16:54:27.582Z,44.32
2019-05-18T16:56:58.828Z,44.39
2019-05-18T16:59:30.381Z,44.55
2019-05-18T17:02:01.551Z,44.64
2019-05-18T17:04:32.875Z,44.78
2019-05-18T17:07:04.732Z,44.94
2019-05-18T17:09:35.813Z,45.20
2019-05-18T17:12:07.030Z,45.47
2019-05-18T17:14:38.886Z,45.87
2019-05-18T17:17:10.231Z,45.85
2019-05-18T17:19:42.576Z,46.05
2019-05-18T17:22:14.305Z,46.34
2019-05-18T17:24:46.476Z,46.59
2019-05-18T17:27:18.299Z,47.03
2019-05-18T17:29:49.897Z,46.81
2019-05-18T17:32:21.087Z,46.83
2019-05-18T17:34:52.337Z,46.95
2019-05-18T17:37:23.793Z,47.06
2019-05-18T17:39:55.316Z,47.24
2019-05-18T17:42:26.489Z,47.52
2019-05-18T17:44:57.835Z,47.92
2019-05-18T17:47:29.672Z,48.12
2019-05-18T17:50:00.941Z,47.97
2019-05-18T17:52:33.009Z,48.16
2019-05-18T17:55:05.177Z,48.27
2019-05-18T17:57:36.631Z,48.41
2019-05-18T18:00:08.927Z,48.48
2019-05-18T18:02:40.674Z,48.54
2019-05-18T18:05:11.922Z,48.79
2019-05-18T18:07:43.509Z,48.91
2019-05-18T18:10:15.098Z,49.07
2019-05-18T18:12:47.657Z,49.38
2019-05-18T18:15:19.682Z,49.42
2019-05-18T18:17:51.334Z,49.61
2019-05-18T18:20:22.595Z,49.83
2019-05-18T18:22:54.249Z,49.96
2019-05-18T18:25:25.696Z,49.96
2019-05-18T18:27:58.186Z,50.07
2019-05-18T18:30:30.543Z,50.11
2019-05-18T18:33:01.697Z,50.23
2019-05-18T18:35:33.039Z,50.21
2019-05-18T18:38:04.182Z,50.53
2019-05-18T18:40:35.433Z,50.24
2019-05-18T18:43:07.086Z,50.35
2019-05-18T18:45:38.344Z,50.52
2019-05-18T18:48:09.889Z,50.53
2019-05-18T18:50:41.133Z,50.58
2019-05-18T18:53:12.482Z,50.71
2019-05-18T18:55:43.833Z,50.84
2019-05-18T18:58:15.080Z,50.85
2019-05-18T19:00:46.328Z,51.00
2019-05-18T19:03:17.840Z,50.91
2019-05-18T19:05:49.229Z,51.05
2019-05-18T19:08:20.580Z,51.28
2019-05-18T19:10:52.055Z,50.51
2019-05-18T19:13:23.692Z,49.87
2019-05-18T19:15:55.258Z,49.54
2019-05-18T19:18:26.695Z,49.42
2019-05-18T19:20:58.044Z,48.99
2019-05-18T19:23:29.706Z,49.28
2019-05-18T19:26:01.261Z,49.53
2019-05-18T19:28:33.739Z,49.51
2019-05-18T19:31:04.886Z,49.59
2019-05-18T19:33:35.929Z,49.61
2019-05-18T19:36:06.975Z,52.13
2019-05-18T19:38:38.322Z,53.05
2019-05-18T19:41:10.019Z,53.24
2019-05-18T19:43:41.642Z,53.06
2019-05-18T19:46:13.132Z,53.13
2019-05-18T19:48:45.019Z,53.23
2019-05-18T19:51:16.610Z,52.97
2019-05-18T19:53:49.402Z,53.22
2019-05-18T19:56:20.763Z,53.08
2019-05-18T19:58:52.097Z,52.88
2019-05-18T20:01:23.416Z,52.92
2019-05-18T20:03:55.079Z,52.92
2019-05-18T20:06:26.356Z,52.91
2019-05-18T20:08:57.647Z,53.13
2019-05-18T20:11:28.803Z,53.20
2019-05-18T20:14:00.001Z,53.53
2019-05-18T20:16:31.574Z,53.61
2019-05-18T20:19:03.128Z,53.67
2019-05-18T20:21:34.783Z,53.94
2019-05-18T20:24:06.366Z,53.60
2019-05-18T20:26:38.190Z,53.62
2019-05-18T20:29:10.083Z,53.47
2019-05-18T20:31:42.416Z,53.55
2019-05-18T20:34:15.520Z,53.70
2019-05-18T20:36:47.180Z,53.84
2019-05-18T20:39:18.407Z,53.95
2019-05-18T20:41:50.554Z,54.58
2019-05-18T20:44:22.271Z,55.33
2019-05-18T20:46:54.298Z,55.53
2019-05-18T20:49:25.749Z,55.74
2019-05-18T20:51:57.341Z,55.64
2019-05-18T20:54:28.959Z,55.63
2019-05-18T20:57:02.585Z,55.50
2019-05-18T20:59:34.630Z,55.35
2019-05-18T21:02:06.180Z,55.47
2019-05-18T21:04:37.733Z,55.47
2019-05-18T21:07:09.495Z,55.63
2019-05-18T21:09:40.619Z,55.69
2019-05-18T21:12:13.694Z,55.64
2019-05-18T21:14:46.811Z,55.86
2019-05-18T21:17:18.184Z,56.15
2019-05-18T21:19:50.310Z,55.91
2019-05-18T21:22:22.398Z,55.96
2019-05-18T21:24:53.977Z,55.95
2019-05-18T21:27:25.719Z,56.06
2019-05-18T21:29:57.262Z,56.05
2019-05-18T21:32:28.710Z,55.83
2019-05-18T21:34:59.967Z,56.21
2019-05-18T21:37:31.937Z,56.38
2019-05-18T21:40:04.401Z,56.67
2019-05-18T21:42:35.855Z,56.76
2019-05-18T21:45:07.614Z,56.73
2019-05-18T21:47:38.852Z,57.53
2019-05-18T21:50:12.899Z,58.21
2019-05-18T21:52:46.159Z,58.08
2019-05-18T21:55:17.810Z,58.39
2019-05-18T21:57:49.467Z,58.13
2019-05-18T22:00:22.326Z,58.36
2019-05-18T22:02:55.443Z,58.32
2019-05-18T22:05:26.999Z,58.29
2019-05-18T22:07:58.345Z,58.39
2019-05-18T22:10:30.306Z,58.57
2019-05-18T22:13:04.392Z,59.16
2019-05-18T22:15:36.026Z,59.28
2019-05-18T22:18:07.324Z,59.56
2019-05-18T22:20:43.499Z,59.45
2019-05-18T22:23:11.964Z,59.56
2019-05-18T22:25:43.111Z,59.77
2019-05-18T22:28:14.366Z,59.82
2019-05-18T22:30:45.609Z,59.91
2019-05-18T22:33:17.172Z,59.91
2019-05-18T22:35:49.028Z,59.16
2019-05-18T22:38:20.577Z,58.97
2019-05-18T22:40:52.126Z,58.97
2019-05-18T22:43:23.896Z,59.02
2019-05-18T22:45:55.172Z,58.69
2019-05-18T22:48:40.431Z,58.64
2019-05-18T22:50:59.893Z,58.87
2019-05-18T22:53:31.456Z,58.40
2019-05-18T22:56:03.005Z,58.41
2019-05-18T22:58:35.278Z,58.53
2019-05-18T23:01:07.043Z,59.03
2019-05-18T23:03:38.496Z,58.33
2019-05-18T23:06:09.941Z,58.68
2019-05-18T23:08:41.504Z,58.68
2019-05-18T23:11:13.471Z,58.64
2019-05-18T23:13:45.025Z,58.82
2019-05-18T23:16:16.283Z,58.62
2019-05-18T23:18:56.540Z,58.76
2019-05-18T23:21:21.851Z,59.02
2019-05-18T23:23:53.302Z,59.03
2019-05-18T23:26:24.451Z,59.59
2019-05-18T23:28:55.806Z,59.45
2019-05-18T23:31:26.955Z,59.51
2019-05-18T23:33:59.020Z,59.92
2019-05-18T23:36:30.678Z,59.44
2019-05-18T23:39:02.239Z,59.54
2019-05-18T23:41:34.403Z,59.79
2019-05-18T23:44:05.861Z,59.99
2019-05-18T23:46:37.207Z,59.86
2019-05-18T23:49:11.161Z,59.97
2019-05-18T23:51:41.658Z,59.67
2019-05-18T23:54:13.112Z,59.74
2019-05-18T23:56:45.078Z,59.54
2019-05-18T23:59:16.636Z,59.71
